sensor_id;sensor_type;location;lat;lon;timestamp;pressure;altitude;pressure_sealevel;temperature;humidity
5753;BME280;2901;42.140;24.760;2022-09-13T00:01:16;99088.50;;;18.36;77.09
5753;BME280;2901;42.140;24.760;2022-09-13T00:03:42;99091.25;;;18.33;77.42
5753;BME280;2901;42.140;24.760;2022-09-13T00:06:13;99088.69;;;18.32;76.79
5753;BME280;2901;42.140;24.760;2022-09-13T00:08:39;99091.44;;;18.29;77.00
5753;BME280;2901;42.140;24.760;2022-09-13T00:11:05;99081.81;;;18.29;76.55
5753;BME280;2901;42.140;24.760;2022-09-13T00:13:30;99083.66;;;18.27;76.71
5753;BME280;2901;42.140;24.760;2022-09-13T00:15:56;99087.47;;;18.20;76.86
5753;BME280;2901;42.140;24.760;2022-09-13T00:18:22;99087.59;;;18.17;76.89
5753;BME280;2901;42.140;24.760;2022-09-13T00:20:49;99088.50;;;18.16;76.74
5753;BME280;2901;42.140;24.760;2022-09-13T00:23:14;99078.94;;;18.15;76.71
5753;BME280;2901;42.140;24.760;2022-09-13T00:25:40;99079.22;;;18.09;76.40
5753;BME280;2901;42.140;24.760;2022-09-13T00:28:05;99079.94;;;18.12;76.59
5753;BME280;2901;42.140;24.760;2022-09-13T00:30:31;99069.44;;;18.12;76.37
5753;BME280;2901;42.140;24.760;2022-09-13T00:32:56;99075.59;;;18.11;76.58
5753;BME280;2901;42.140;24.760;2022-09-13T00:35:22;99073.84;;;18.12;76.98
5753;BME280;2901;42.140;24.760;2022-09-13T00:37:48;99070.44;;;18.10;77.00
5753;BME280;2901;42.140;24.760;2022-09-13T00:40:13;99070.44;;;18.10;76.87
5753;BME280;2901;42.140;24.760;2022-09-13T00:42:39;99067.03;;;18.08;77.18
5753;BME280;2901;42.140;24.760;2022-09-13T00:47:42;99065.97;;;18.12;77.07
5753;BME280;2901;42.140;24.760;2022-09-13T00:50:28;99067.81;;;18.10;77.12
5753;BME280;2901;42.140;24.760;2022-09-13T00:53:23;99081.06;;;18.07;77.20
5753;BME280;2901;42.140;24.760;2022-09-13T00:56:01;99064.53;;;18.05;77.81
5753;BME280;2901;42.140;24.760;2022-09-13T00:58:37;99070.72;;;18.04;77.70
5753;BME280;2901;42.140;24.760;2022-09-13T01:01:05;99066.38;;;18.03;78.26
5753;BME280;2901;42.140;24.760;2022-09-13T01:03:34;99070.00;;;18.00;78.18
5753;BME280;2901;42.140;24.760;2022-09-13T01:06:08;99061.47;;;17.95;78.92
5753;BME280;2901;42.140;24.760;2022-09-13T01:08:37;99068.47;;;17.95;78.59
5753;BME280;2901;42.140;24.760;2022-09-13T01:11:05;99066.97;;;17.89;78.97
5753;BME280;2901;42.140;24.760;2022-09-13T01:13:36;99062.63;;;17.88;79.04
5753;BME280;2901;42.140;24.760;2022-09-13T01:16:03;99060.09;;;17.87;79.27
5753;BME280;2901;42.140;24.760;2022-09-13T01:18:28;99066.91;;;17.91;79.16
5753;BME280;2901;42.140;24.760;2022-09-13T01:35:46;99070.19;;;17.76;79.25
5753;BME280;2901;42.140;24.760;2022-09-13T01:44:23;99058.97;;;17.72;79.17
5753;BME280;2901;42.140;24.760;2022-09-13T01:55:04;99054.22;;;17.61;80.28
5753;BME280;2901;42.140;24.760;2022-09-13T01:57:35;99053.63;;;17.53;80.86
5753;BME280;2901;42.140;24.760;2022-09-13T02:00:13;99056.09;;;17.58;80.43
5753;BME280;2901;42.140;24.760;2022-09-13T02:02:41;99049.81;;;17.62;80.52
5753;BME280;2901;42.140;24.760;2022-09-13T02:08:24;99051.53;;;17.63;80.13
5753;BME280;2901;42.140;24.760;2022-09-13T02:10:57;99048.13;;;17.61;80.11
5753;BME280;2901;42.140;24.760;2022-09-13T02:13:28;99050.03;;;17.57;80.56
5753;BME280;2901;42.140;24.760;2022-09-13T02:16:00;99047.31;;;17.59;79.94
5753;BME280;2901;42.140;24.760;2022-09-13T02:18:33;99037.84;;;17.56;80.21
5753;BME280;2901;42.140;24.760;2022-09-13T02:21:05;99029.16;;;17.54;80.30
5753;BME280;2901;42.140;24.760;2022-09-13T02:23:37;99047.41;;;17.57;80.24
5753;BME280;2901;42.140;24.760;2022-09-13T02:26:05;99040.31;;;17.59;80.18
5753;BME280;2901;42.140;24.760;2022-09-13T02:28:39;99040.53;;;17.53;80.54
5753;BME280;2901;42.140;24.760;2022-09-13T02:31:07;99043.06;;;17.56;80.13
5753;BME280;2901;42.140;24.760;2022-09-13T02:34:03;99048.31;;;17.56;80.12
5753;BME280;2901;42.140;24.760;2022-09-13T02:36:34;99054.41;;;17.57;79.98
5753;BME280;2901;42.140;24.760;2022-09-13T02:39:09;99042.16;;;17.57;79.50
5753;BME280;2901;42.140;24.760;2022-09-13T02:44:51;99045.75;;;17.55;79.18
5753;BME280;2901;42.140;24.760;2022-09-13T02:53:36;99045.19;;;17.47;78.71
5753;BME280;2901;42.140;24.760;2022-09-13T02:56:29;99052.91;;;17.50;78.85
5753;BME280;2901;42.140;24.760;2022-09-13T02:59:07;99052.06;;;17.49;79.24
5753;BME280;2901;42.140;24.760;2022-09-13T03:01:37;99046.81;;;17.49;78.75
5753;BME280;2901;42.140;24.760;2022-09-13T03:04:04;99051.28;;;17.47;78.37
5753;BME280;2901;42.140;24.760;2022-09-13T03:06:29;99052.31;;;17.43;78.71
5753;BME280;2901;42.140;24.760;2022-09-13T03:08:56;99055.97;;;17.39;78.75
5753;BME280;2901;42.140;24.760;2022-09-13T03:11:55;99066.44;;;17.39;78.68
5753;BME280;2901;42.140;24.760;2022-09-13T03:20:24;99075.56;;;17.29;78.84
5753;BME280;2901;42.140;24.760;2022-09-13T03:28:26;99078.31;;;17.26;78.28
5753;BME280;2901;42.140;24.760;2022-09-13T03:31:30;99078.53;;;17.22;78.69
5753;BME280;2901;42.140;24.760;2022-09-13T03:34:10;99080.41;;;17.18;78.92
5753;BME280;2901;42.140;24.760;2022-09-13T03:39:45;99086.09;;;17.06;79.66
5753;BME280;2901;42.140;24.760;2022-09-13T03:42:27;99085.31;;;17.04;79.65
5753;BME280;2901;42.140;24.760;2022-09-13T03:44:56;99088.97;;;17.00;80.42
5753;BME280;2901;42.140;24.760;2022-09-13T03:47:27;99083.84;;;16.97;80.60
5753;BME280;2901;42.140;24.760;2022-09-13T03:49:55;99096.16;;;16.95;80.95
5753;BME280;2901;42.140;24.760;2022-09-13T03:52:21;99092.84;;;16.90;81.51
5753;BME280;2901;42.140;24.760;2022-09-13T03:54:47;99080.56;;;16.92;81.49
5753;BME280;2901;42.140;24.760;2022-09-13T03:57:18;99084.34;;;16.85;81.71
5753;BME280;2901;42.140;24.760;2022-09-13T03:59:50;99095.69;;;16.84;81.94
5753;BME280;2901;42.140;24.760;2022-09-13T04:02:18;99086.34;;;16.78;82.54
5753;BME280;2901;42.140;24.760;2022-09-13T04:04:44;99091.50;;;16.80;82.55
5753;BME280;2901;42.140;24.760;2022-09-13T04:07:12;99087.22;;;16.77;81.70
5753;BME280;2901;42.140;24.760;2022-09-13T04:09:38;99093.47;;;16.73;81.80
5753;BME280;2901;42.140;24.760;2022-09-13T04:12:04;99087.31;;;16.76;82.30
5753;BME280;2901;42.140;24.760;2022-09-13T04:14:30;99080.22;;;16.79;81.94
5753;BME280;2901;42.140;24.760;2022-09-13T04:16:56;99090.53;;;16.82;82.42
5753;BME280;2901;42.140;24.760;2022-09-13T04:19:23;99093.66;;;16.92;82.37
5753;BME280;2901;42.140;24.760;2022-09-13T04:21:51;99090.91;;;16.95;82.42
5753;BME280;2901;42.140;24.760;2022-09-13T04:24:17;99096.81;;;17.00;82.49
5753;BME280;2901;42.140;24.760;2022-09-13T04:26:47;99082.72;;;17.04;81.38
5753;BME280;2901;42.140;24.760;2022-09-13T04:29:12;99090.31;;;17.10;80.63
5753;BME280;2901;42.140;24.760;2022-09-13T04:31:38;99100.41;;;17.19;80.26
5753;BME280;2901;42.140;24.760;2022-09-13T04:34:03;99092.25;;;17.27;80.03
5753;BME280;2901;42.140;24.760;2022-09-13T04:36:31;99089.50;;;17.30;79.46
5753;BME280;2901;42.140;24.760;2022-09-13T04:38:57;99084.09;;;17.34;79.76
5753;BME280;2901;42.140;24.760;2022-09-13T04:41:25;99097.84;;;17.39;78.90
5753;BME280;2901;42.140;24.760;2022-09-13T04:43:50;99090.72;;;17.43;79.40
5753;BME280;2901;42.140;24.760;2022-09-13T04:46:16;99092.34;;;17.45;78.92
5753;BME280;2901;42.140;24.760;2022-09-13T04:48:42;99105.53;;;17.44;78.65
5753;BME280;2901;42.140;24.760;2022-09-13T04:51:07;99108.00;;;17.47;79.37
5753;BME280;2901;42.140;24.760;2022-09-13T04:53:33;99105.34;;;17.48;79.33
5753;BME280;2901;42.140;24.760;2022-09-13T04:56:03;99099.13;;;17.51;79.13
5753;BME280;2901;42.140;24.760;2022-09-13T04:58:30;99104.06;;;17.58;78.79
5753;BME280;2901;42.140;24.760;2022-09-13T05:01:01;99111.47;;;17.69;78.96
5753;BME280;2901;42.140;24.760;2022-09-13T05:03:29;99103.44;;;17.74;78.60
5753;BME280;2901;42.140;24.760;2022-09-13T05:06:00;99105.16;;;17.75;79.05
5753;BME280;2901;42.140;24.760;2022-09-13T05:08:26;99118.63;;;17.86;78.73
5753;BME280;2901;42.140;24.760;2022-09-13T05:10:51;99114.97;;;17.90;78.83
5753;BME280;2901;42.140;24.760;2022-09-13T05:13:16;99109.63;;;17.93;79.04
5753;BME280;2901;42.140;24.760;2022-09-13T05:15:42;99113.81;;;17.97;78.78
5753;BME280;2901;42.140;24.760;2022-09-13T05:18:07;99112.91;;;17.98;77.97
5753;BME280;2901;42.140;24.760;2022-09-13T05:20:33;99101.03;;;18.09;77.55
5753;BME280;2901;42.140;24.760;2022-09-13T05:22:58;99115.84;;;18.10;78.15
5753;BME280;2901;42.140;24.760;2022-09-13T05:25:23;99106.84;;;18.16;77.40
5753;BME280;2901;42.140;24.760;2022-09-13T05:27:49;99106.53;;;18.24;76.78
5753;BME280;2901;42.140;24.760;2022-09-13T05:30:15;99106.31;;;18.28;76.46
5753;BME280;2901;42.140;24.760;2022-09-13T05:32:40;99112.22;;;18.33;76.62
5753;BME280;2901;42.140;24.760;2022-09-13T05:35:06;99106.97;;;18.33;76.71
5753;BME280;2901;42.140;24.760;2022-09-13T05:37:32;99103.94;;;18.42;76.94
5753;BME280;2901;42.140;24.760;2022-09-13T05:39:58;99106.28;;;18.48;76.85
5753;BME280;2901;42.140;24.760;2022-09-13T05:42:23;99103.56;;;18.51;76.87
5753;BME280;2901;42.140;24.760;2022-09-13T05:44:48;99105.78;;;18.60;77.04
5753;BME280;2901;42.140;24.760;2022-09-13T05:47:14;99100.97;;;18.70;76.86
5753;BME280;2901;42.140;24.760;2022-09-13T05:49:39;99102.31;;;18.79;76.57
5753;BME280;2901;42.140;24.760;2022-09-13T05:52:05;99089.81;;;18.84;75.89
5753;BME280;2901;42.140;24.760;2022-09-13T05:54:30;99096.28;;;18.95;76.49
5753;BME280;2901;42.140;24.760;2022-09-13T05:56:57;99094.06;;;19.05;75.90
5753;BME280;2901;42.140;24.760;2022-09-13T05:59:22;99093.88;;;19.09;75.92
5753;BME280;2901;42.140;24.760;2022-09-13T06:01:47;99096.81;;;19.21;75.95
5753;BME280;2901;42.140;24.760;2022-09-13T06:04:13;99097.53;;;19.24;75.97
5753;BME280;2901;42.140;24.760;2022-09-13T06:06:38;99095.69;;;19.26;75.89
5753;BME280;2901;42.140;24.760;2022-09-13T06:09:04;99098.16;;;19.29;75.75
5753;BME280;2901;42.140;24.760;2022-09-13T06:11:32;99101.41;;;19.34;75.18
5753;BME280;2901;42.140;24.760;2022-09-13T06:13:57;99100.56;;;19.34;75.28
5753;BME280;2901;42.140;24.760;2022-09-13T06:16:23;99097.44;;;19.44;74.76
5753;BME280;2901;42.140;24.760;2022-09-13T06:18:48;99096.53;;;19.45;74.45
5753;BME280;2901;42.140;24.760;2022-09-13T06:21:17;99104.50;;;19.61;74.34
5753;BME280;2901;42.140;24.760;2022-09-13T06:23:48;99104.97;;;19.69;73.53
5753;BME280;2901;42.140;24.760;2022-09-13T06:26:15;99106.91;;;19.83;73.42
5753;BME280;2901;42.140;24.760;2022-09-13T06:28:41;99103.34;;;19.84;72.86
5753;BME280;2901;42.140;24.760;2022-09-13T06:31:12;99125.00;;;19.89;72.11
5753;BME280;2901;42.140;24.760;2022-09-13T06:33:40;99117.03;;;19.90;71.70
5753;BME280;2901;42.140;24.760;2022-09-13T06:36:17;99115.09;;;19.94;71.48
5753;BME280;2901;42.140;24.760;2022-09-13T06:38:47;99110.75;;;19.93;71.95
5753;BME280;2901;42.140;24.760;2022-09-13T06:41:15;99111.56;;;19.95;71.44
5753;BME280;2901;42.140;24.760;2022-09-13T06:43:43;99117.19;;;20.04;70.77
5753;BME280;2901;42.140;24.760;2022-09-13T06:46:11;99125.63;;;20.11;70.26
5753;BME280;2901;42.140;24.760;2022-09-13T06:48:39;99123.69;;;20.14;70.00
5753;BME280;2901;42.140;24.760;2022-09-13T06:51:08;99125.28;;;20.17;69.56
5753;BME280;2901;42.140;24.760;2022-09-13T06:53:35;99124.38;;;20.18;69.88
5753;BME280;2901;42.140;24.760;2022-09-13T06:56:05;99118.69;;;20.26;69.33
5753;BME280;2901;42.140;24.760;2022-09-13T06:58:31;99134.75;;;20.38;70.02
5753;BME280;2901;42.140;24.760;2022-09-13T07:01:10;99136.78;;;20.49;69.41
5753;BME280;2901;42.140;24.760;2022-09-13T07:03:47;99121.63;;;20.54;68.08
5753;BME280;2901;42.140;24.760;2022-09-13T07:06:15;99123.94;;;20.60;67.21
5753;BME280;2901;42.140;24.760;2022-09-13T07:08:42;99134.22;;;20.64;66.86
5753;BME280;2901;42.140;24.760;2022-09-13T07:11:10;99142.81;;;20.68;66.61
5753;BME280;2901;42.140;24.760;2022-09-13T07:13:36;99138.22;;;20.71;67.35
5753;BME280;2901;42.140;24.760;2022-09-13T07:16:08;99133.28;;;20.65;66.27
5753;BME280;2901;42.140;24.760;2022-09-13T07:18:34;99140.38;;;20.81;66.71
5753;BME280;2901;42.140;24.760;2022-09-13T07:21:04;99142.41;;;20.91;65.79
5753;BME280;2901;42.140;24.760;2022-09-13T07:23:31;99140.47;;;20.95;66.45
5753;BME280;2901;42.140;24.760;2022-09-13T07:25:57;99149.56;;;21.05;65.62
5753;BME280;2901;42.140;24.760;2022-09-13T07:28:28;99145.53;;;21.15;65.73
5753;BME280;2901;42.140;24.760;2022-09-13T07:30:55;99144.88;;;21.27;65.43
5753;BME280;2901;42.140;24.760;2022-09-13T07:33:23;99138.91;;;21.24;65.00
5753;BME280;2901;42.140;24.760;2022-09-13T07:35:56;99138.28;;;21.34;64.88
5753;BME280;2901;42.140;24.760;2022-09-13T07:38:22;99139.25;;;21.33;64.78
5753;BME280;2901;42.140;24.760;2022-09-13T07:40:57;99145.63;;;21.29;63.17
5753;BME280;2901;42.140;24.760;2022-09-13T07:43:27;99135.81;;;21.31;62.29
5753;BME280;2901;42.140;24.760;2022-09-13T07:46:07;99144.06;;;21.41;63.09
5753;BME280;2901;42.140;24.760;2022-09-13T07:48:35;99139.06;;;21.52;62.83
5753;BME280;2901;42.140;24.760;2022-09-13T07:53:26;99142.88;;;21.62;62.00
5753;BME280;2901;42.140;24.760;2022-09-13T07:55:53;99132.16;;;21.65;61.35
5753;BME280;2901;42.140;24.760;2022-09-13T07:58:18;99148.38;;;21.73;60.63
5753;BME280;2901;42.140;24.760;2022-09-13T08:00:43;99130.06;;;21.86;60.65
5753;BME280;2901;42.140;24.760;2022-09-13T08:03:10;99137.47;;;21.95;60.38
5753;BME280;2901;42.140;24.760;2022-09-13T08:05:40;99151.91;;;21.88;59.19
5753;BME280;2901;42.140;24.760;2022-09-13T08:08:06;99132.53;;;21.89;59.01
5753;BME280;2901;42.140;24.760;2022-09-13T08:10:35;99137.72;;;21.90;58.99
5753;BME280;2901;42.140;24.760;2022-09-13T08:13:00;99127.31;;;22.03;58.81
5753;BME280;2901;42.140;24.760;2022-09-13T08:15:26;99122.00;;;22.18;58.61
5753;BME280;2901;42.140;24.760;2022-09-13T08:17:52;99123.63;;;22.35;57.20
5753;BME280;2901;42.140;24.760;2022-09-13T08:20:20;99137.56;;;22.37;54.93
5753;BME280;2901;42.140;24.760;2022-09-13T08:22:47;99145.44;;;22.23;54.66
5753;BME280;2901;42.140;24.760;2022-09-13T08:25:12;99126.34;;;22.34;54.83
5753;BME280;2901;42.140;24.760;2022-09-13T08:27:38;99118.53;;;22.32;55.55
5753;BME280;2901;42.140;24.760;2022-09-13T08:30:04;99128.31;;;22.44;56.75
5753;BME280;2901;42.140;24.760;2022-09-13T08:32:29;99122.31;;;22.42;56.38
5753;BME280;2901;42.140;24.760;2022-09-13T08:34:55;99120.03;;;22.50;55.35
5753;BME280;2901;42.140;24.760;2022-09-13T08:37:20;99128.16;;;22.61;55.01
5753;BME280;2901;42.140;24.760;2022-09-13T08:39:45;99126.66;;;22.86;54.24
5753;BME280;2901;42.140;24.760;2022-09-13T08:42:20;99124.13;;;22.98;53.59
5753;BME280;2901;42.140;24.760;2022-09-13T08:44:52;99123.88;;;23.15;53.07
5753;BME280;2901;42.140;24.760;2022-09-13T08:47:26;99118.47;;;23.31;50.95
5753;BME280;2901;42.140;24.760;2022-09-13T09:00:39;99123.31;;;23.24;47.13
5753;BME280;2901;42.140;24.760;2022-09-13T09:03:22;99114.56;;;23.51;45.63
5753;BME280;2901;42.140;24.760;2022-09-13T09:05:50;99122.38;;;23.79;43.52
5753;BME280;2901;42.140;24.760;2022-09-13T09:08:38;99114.84;;;24.12;43.05
5753;BME280;2901;42.140;24.760;2022-09-13T09:11:25;99106.41;;;24.33;43.78
5753;BME280;2901;42.140;24.760;2022-09-13T09:14:07;99101.75;;;24.23;43.08
5753;BME280;2901;42.140;24.760;2022-09-13T09:16:43;99089.84;;;24.04;44.69
5753;BME280;2901;42.140;24.760;2022-09-13T09:21:43;99086.16;;;23.54;44.51
5753;BME280;2901;42.140;24.760;2022-09-13T09:24:18;99099.91;;;23.59;44.75
5753;BME280;2901;42.140;24.760;2022-09-13T09:26:44;99102.63;;;23.58;45.70
5753;BME280;2901;42.140;24.760;2022-09-13T09:29:19;99102.91;;;23.41;45.96
5753;BME280;2901;42.140;24.760;2022-09-13T09:36:55;99103.78;;;23.13;46.10
5753;BME280;2901;42.140;24.760;2022-09-13T09:39:28;99102.69;;;23.03;45.83
5753;BME280;2901;42.140;24.760;2022-09-13T09:41:58;99110.31;;;23.07;46.50
5753;BME280;2901;42.140;24.760;2022-09-13T09:44:28;99104.56;;;23.15;46.46
5753;BME280;2901;42.140;24.760;2022-09-13T09:47:24;99112.75;;;23.24;45.19
5753;BME280;2901;42.140;24.760;2022-09-13T09:49:56;99110.75;;;23.28;45.17
5753;BME280;2901;42.140;24.760;2022-09-13T09:58:02;99101.72;;;23.71;44.84
5753;BME280;2901;42.140;24.760;2022-09-13T10:00:35;99113.41;;;23.94;44.50
5753;BME280;2901;42.140;24.760;2022-09-13T10:03:04;99114.81;;;24.00;41.79
5753;BME280;2901;42.140;24.760;2022-09-13T10:05:30;99105.59;;;23.93;41.50
5753;BME280;2901;42.140;24.760;2022-09-13T10:08:04;99112.47;;;23.95;42.72
5753;BME280;2901;42.140;24.760;2022-09-13T10:13:13;99096.81;;;23.92;42.86
5753;BME280;2901;42.140;24.760;2022-09-13T10:15:55;99099.44;;;23.92;43.38
5753;BME280;2901;42.140;24.760;2022-09-13T10:18:24;99089.97;;;24.15;42.33
5753;BME280;2901;42.140;24.760;2022-09-13T10:23:45;99087.63;;;24.73;40.99
5753;BME280;2901;42.140;24.760;2022-09-13T10:26:17;99087.44;;;24.89;41.76
5753;BME280;2901;42.140;24.760;2022-09-13T10:31:17;99078.84;;;24.73;40.94
5753;BME280;2901;42.140;24.760;2022-09-13T10:36:25;99077.59;;;24.66;41.90
5753;BME280;2901;42.140;24.760;2022-09-13T10:39:27;99068.66;;;24.67;41.41
5753;BME280;2901;42.140;24.760;2022-09-13T10:42:03;99064.75;;;24.72;41.73
5753;BME280;2901;42.140;24.760;2022-09-13T10:44:50;99063.38;;;24.79;40.59
5753;BME280;2901;42.140;24.760;2022-09-13T10:47:24;99062.19;;;24.84;41.32
5753;BME280;2901;42.140;24.760;2022-09-13T10:49:53;99069.00;;;24.62;39.75
5753;BME280;2901;42.140;24.760;2022-09-13T10:52:29;99051.31;;;24.50;40.76
5753;BME280;2901;42.140;24.760;2022-09-13T10:55:03;99063.19;;;24.45;40.25
5753;BME280;2901;42.140;24.760;2022-09-13T10:57:40;99054.31;;;24.46;41.50
5753;BME280;2901;42.140;24.760;2022-09-13T11:00:08;99055.88;;;24.48;39.63
5753;BME280;2901;42.140;24.760;2022-09-13T11:08:40;99040.53;;;24.41;40.70
5753;BME280;2901;42.140;24.760;2022-09-13T11:27:34;99026.81;;;25.91;36.97
5753;BME280;2901;42.140;24.760;2022-09-13T11:30:14;99025.53;;;26.07;37.13
5753;BME280;2901;42.140;24.760;2022-09-13T11:50:09;99008.84;;;25.48;34.15
5753;BME280;2901;42.140;24.760;2022-09-13T11:55:20;99016.94;;;24.87;35.71
5753;BME280;2901;42.140;24.760;2022-09-13T11:58:11;99017.38;;;24.80;35.81
5753;BME280;2901;42.140;24.760;2022-09-13T12:00:42;99029.16;;;24.89;36.38
5753;BME280;2901;42.140;24.760;2022-09-13T12:08:37;99026.16;;;24.94;37.53
5753;BME280;2901;42.140;24.760;2022-09-13T12:11:10;99011.50;;;25.01;37.35
5753;BME280;2901;42.140;24.760;2022-09-13T12:13:48;99024.75;;;25.01;37.25
5753;BME280;2901;42.140;24.760;2022-09-13T12:16:25;99012.13;;;25.04;37.53
5753;BME280;2901;42.140;24.760;2022-09-13T12:18:56;99017.59;;;25.38;37.20
5753;BME280;2901;42.140;24.760;2022-09-13T12:21:29;99008.16;;;25.57;36.25
5753;BME280;2901;42.140;24.760;2022-09-13T12:28:58;99010.72;;;25.11;36.77
5753;BME280;2901;42.140;24.760;2022-09-13T12:31:28;99014.25;;;25.23;36.07
5753;BME280;2901;42.140;24.760;2022-09-13T12:33:53;99009.13;;;25.33;36.31
5753;BME280;2901;42.140;24.760;2022-09-13T13:03:42;98997.94;;;25.40;34.89
5753;BME280;2901;42.140;24.760;2022-09-13T13:06:18;98990.00;;;25.40;34.26
5753;BME280;2901;42.140;24.760;2022-09-13T13:08:51;98994.81;;;25.46;34.41
5753;BME280;2901;42.140;24.760;2022-09-13T13:11:21;98991.94;;;25.49;34.88
5753;BME280;2901;42.140;24.760;2022-09-13T13:13:58;98999.25;;;25.58;34.87
5753;BME280;2901;42.140;24.760;2022-09-13T13:16:30;98996.84;;;25.55;34.94
5753;BME280;2901;42.140;24.760;2022-09-13T13:18:59;98995.91;;;25.67;35.32
5753;BME280;2901;42.140;24.760;2022-09-13T13:29:22;98989.50;;;26.27;33.55
5753;BME280;2901;42.140;24.760;2022-09-13T13:37:00;98990.44;;;26.59;33.60
5753;BME280;2901;42.140;24.760;2022-09-13T13:41:56;99000.41;;;26.78;32.85
5753;BME280;2901;42.140;24.760;2022-09-13T13:46:49;99006.25;;;26.39;32.67
5753;BME280;2901;42.140;24.760;2022-09-13T14:02:49;99017.16;;;25.90;33.51
5753;BME280;2901;42.140;24.760;2022-09-13T14:05:43;99016.47;;;26.10;33.14
5753;BME280;2901;42.140;24.760;2022-09-13T14:08:36;99019.19;;;26.21;33.00
5753;BME280;2901;42.140;24.760;2022-09-13T14:19:52;99017.50;;;26.53;32.33
5753;BME280;2901;42.140;24.760;2022-09-13T14:22:24;99019.28;;;26.64;32.22
5753;BME280;2901;42.140;24.760;2022-09-13T14:24:56;99023.50;;;26.55;32.56
5753;BME280;2901;42.140;24.760;2022-09-13T14:27:25;99016.13;;;26.48;32.73
5753;BME280;2901;42.140;24.760;2022-09-13T14:29:54;99016.88;;;26.39;33.47
5753;BME280;2901;42.140;24.760;2022-09-13T14:32:23;99020.38;;;26.39;33.74
5753;BME280;2901;42.140;24.760;2022-09-13T14:35:02;99026.19;;;26.44;33.36
5753;BME280;2901;42.140;24.760;2022-09-13T14:37:31;99022.09;;;26.40;33.75
5753;BME280;2901;42.140;24.760;2022-09-13T14:40:00;99022.19;;;26.39;33.25
5753;BME280;2901;42.140;24.760;2022-09-13T14:42:36;99034.97;;;26.45;33.70
5753;BME280;2901;42.140;24.760;2022-09-13T14:45:01;99023.66;;;26.43;33.33
5753;BME280;2901;42.140;24.760;2022-09-13T14:47:31;99024.13;;;26.59;33.02
5753;BME280;2901;42.140;24.760;2022-09-13T14:50:06;99023.50;;;26.66;33.20
5753;BME280;2901;42.140;24.760;2022-09-13T14:52:42;99032.81;;;26.83;32.49
5753;BME280;2901;42.140;24.760;2022-09-13T14:55:17;99032.44;;;26.88;32.03
5753;BME280;2901;42.140;24.760;2022-09-13T14:57:53;99033.69;;;26.84;32.05
5753;BME280;2901;42.140;24.760;2022-09-13T15:00:22;99032.31;;;26.78;31.41
5753;BME280;2901;42.140;24.760;2022-09-13T15:02:57;99022.56;;;26.67;31.35
5753;BME280;2901;42.140;24.760;2022-09-13T15:05:27;99029.78;;;26.65;31.79
5753;BME280;2901;42.140;24.760;2022-09-13T15:07:53;99039.44;;;26.66;31.60
5753;BME280;2901;42.140;24.760;2022-09-13T15:10:28;99033.88;;;26.58;31.42
5753;BME280;2901;42.140;24.760;2022-09-13T15:20:21;99024.00;;;26.38;31.55
5753;BME280;2901;42.140;24.760;2022-09-13T15:22:47;99019.28;;;26.42;31.69
5753;BME280;2901;42.140;24.760;2022-09-13T15:25:26;99021.94;;;26.42;31.81
5753;BME280;2901;42.140;24.760;2022-09-13T15:27:53;99022.69;;;26.44;32.11
5753;BME280;2901;42.140;24.760;2022-09-13T15:30:21;99024.50;;;26.43;31.69
5753;BME280;2901;42.140;24.760;2022-09-13T15:32:47;99035.00;;;26.34;30.76
5753;BME280;2901;42.140;24.760;2022-09-13T15:35:26;99039.56;;;26.31;31.25
5753;BME280;2901;42.140;24.760;2022-09-13T15:38:06;99034.50;;;26.28;31.04
5753;BME280;2901;42.140;24.760;2022-09-13T15:40:46;99030.03;;;26.29;31.33
5753;BME280;2901;42.140;24.760;2022-09-13T15:43:12;99043.06;;;26.32;31.46
5753;BME280;2901;42.140;24.760;2022-09-13T15:45:37;99036.66;;;26.35;31.41
5753;BME280;2901;42.140;24.760;2022-09-13T15:48:03;99035.22;;;26.42;32.05
5753;BME280;2901;42.140;24.760;2022-09-13T15:50:30;99041.63;;;26.50;31.05
5753;BME280;2901;42.140;24.760;2022-09-13T15:52:58;99042.72;;;26.37;31.52
5753;BME280;2901;42.140;24.760;2022-09-13T15:55:24;99045.00;;;26.30;31.57
5753;BME280;2901;42.140;24.760;2022-09-13T15:57:51;99052.31;;;26.15;32.13
5753;BME280;2901;42.140;24.760;2022-09-13T16:00:23;99043.34;;;25.94;32.63
5753;BME280;2901;42.140;24.760;2022-09-13T16:02:49;99046.81;;;25.84;33.26
5753;BME280;2901;42.140;24.760;2022-09-13T16:05:15;99052.84;;;25.74;33.29
5753;BME280;2901;42.140;24.760;2022-09-13T16:07:41;99060.03;;;25.61;33.62
5753;BME280;2901;42.140;24.760;2022-09-13T16:10:12;99051.59;;;25.44;34.18
5753;BME280;2901;42.140;24.760;2022-09-13T16:12:38;99054.75;;;25.25;34.77
5753;BME280;2901;42.140;24.760;2022-09-13T16:15:04;99057.75;;;25.20;35.08
5753;BME280;2901;42.140;24.760;2022-09-13T16:17:30;99056.88;;;25.20;35.76
5753;BME280;2901;42.140;24.760;2022-09-13T16:19:55;99054.25;;;25.20;35.46
5753;BME280;2901;42.140;24.760;2022-09-13T16:22:21;99052.28;;;25.11;35.38
5753;BME280;2901;42.140;24.760;2022-09-13T16:24:46;99062.38;;;25.06;35.76
5753;BME280;2901;42.140;24.760;2022-09-13T16:27:14;99065.25;;;24.90;35.73
5753;BME280;2901;42.140;24.760;2022-09-13T16:29:40;99065.59;;;24.86;36.83
5753;BME280;2901;42.140;24.760;2022-09-13T16:32:06;99066.75;;;24.82;36.88
5753;BME280;2901;42.140;24.760;2022-09-13T16:34:31;99067.19;;;24.75;37.51
5753;BME280;2901;42.140;24.760;2022-09-13T16:36:57;99071.22;;;24.68;36.36
5753;BME280;2901;42.140;24.760;2022-09-13T16:39:22;99067.44;;;24.60;36.58
5753;BME280;2901;42.140;24.760;2022-09-13T16:41:48;99066.25;;;24.51;36.92
5753;BME280;2901;42.140;24.760;2022-09-13T16:44:13;99067.63;;;24.44;38.89
5753;BME280;2901;42.140;24.760;2022-09-13T16:46:40;99069.34;;;24.33;39.98
5753;BME280;2901;42.140;24.760;2022-09-13T16:49:05;99082.16;;;24.26;40.75
5753;BME280;2901;42.140;24.760;2022-09-13T16:51:31;99070.78;;;24.11;41.16
5753;BME280;2901;42.140;24.760;2022-09-13T16:53:57;99070.78;;;23.99;41.00
5753;BME280;2901;42.140;24.760;2022-09-13T16:56:24;99076.50;;;23.93;42.46
5753;BME280;2901;42.140;24.760;2022-09-13T16:58:50;99078.78;;;23.85;42.83
5753;BME280;2901;42.140;24.760;2022-09-13T17:01:19;99081.13;;;23.76;42.89
5753;BME280;2901;42.140;24.760;2022-09-13T17:03:45;99079.19;;;23.66;43.52
5753;BME280;2901;42.140;24.760;2022-09-13T17:06:12;99094.59;;;23.59;44.08
5753;BME280;2901;42.140;24.760;2022-09-13T17:08:40;99096.28;;;23.48;44.70